sensor_id;sensor_type;location;lat;lon;timestamp;P1;durP1;ratioP1;P2;durP2;ratioP2
20336;SDS011;10326;53.660;10.200;2022-12-29T00:02:08;2.80;;;2.60;;
20336;SDS011;10326;53.660;10.200;2022-12-29T00:04:36;2.78;;;2.58;;
20336;SDS011;10326;53.660;10.200;2022-12-29T00:07:03;2.85;;;2.55;;
20336;SDS011;10326;53.660;10.200;2022-12-29T00:09:31;2.60;;;2.40;;
20336;SDS011;10326;53.660;10.200;2022-12-29T00:12:00;3.03;;;2.72;;
20336;SDS011;10326;53.660;10.200;2022-12-29T00:14:29;2.92;;;2.72;;
20336;SDS011;10326;53.660;10.200;2022-12-29T00:17:14;2.58;;;2.38;;
20336;SDS011;10326;53.660;10.200;2022-12-29T00:19:41;2.80;;;2.60;;
20336;SDS011;10326;53.660;10.200;2022-12-29T00:22:26;2.78;;;2.58;;
20336;SDS011;10326;53.660;10.200;2022-12-29T00:25:11;3.20;;;2.90;;
20336;SDS011;10326;53.660;10.200;2022-12-29T00:27:58;2.90;;;2.65;;
20336;SDS011;10326;53.660;10.200;2022-12-29T00:30:43;2.80;;;2.60;;
20336;SDS011;10326;53.660;10.200;2022-12-29T00:33:28;2.60;;;2.50;;
20336;SDS011;10326;53.660;10.200;2022-12-29T00:36:16;2.75;;;2.55;;
20336;SDS011;10326;53.660;10.200;2022-12-29T00:38:47;2.90;;;2.70;;
20336;SDS011;10326;53.660;10.200;2022-12-29T00:41:36;3.10;;;2.90;;
20336;SDS011;10326;53.660;10.200;2022-12-29T00:44:23;3.33;;;3.03;;
20336;SDS011;10326;53.660;10.200;2022-12-29T00:46:50;3.10;;;2.80;;
20336;SDS011;10326;53.660;10.200;2022-12-29T00:49:18;3.17;;;2.90;;
20336;SDS011;10326;53.660;10.200;2022-12-29T00:51:57;3.63;;;3.33;;
20336;SDS011;10326;53.660;10.200;2022-12-29T00:54:27;2.80;;;2.60;;
20336;SDS011;10326;53.660;10.200;2022-12-29T00:56:56;2.75;;;2.55;;
20336;SDS011;10326;53.660;10.200;2022-12-29T00:59:25;3.22;;;2.75;;
20336;SDS011;10326;53.660;10.200;2022-12-29T01:01:52;2.95;;;2.75;;
20336;SDS011;10326;53.660;10.200;2022-12-29T01:04:21;2.90;;;2.70;;
20336;SDS011;10326;53.660;10.200;2022-12-29T01:06:51;2.88;;;2.67;;
20336;SDS011;10326;53.660;10.200;2022-12-29T01:09:19;2.88;;;2.67;;
20336;SDS011;10326;53.660;10.200;2022-12-29T01:12:05;3.17;;;2.97;;
20336;SDS011;10326;53.660;10.200;2022-12-29T01:14:35;3.17;;;2.75;;
20336;SDS011;10326;53.660;10.200;2022-12-29T01:17:03;2.90;;;2.70;;
20336;SDS011;10326;53.660;10.200;2022-12-29T01:19:31;2.90;;;2.55;;
20336;SDS011;10326;53.660;10.200;2022-12-29T01:21:59;2.88;;;2.67;;
20336;SDS011;10326;53.660;10.200;2022-12-29T01:24:27;2.88;;;2.67;;
20336;SDS011;10326;53.660;10.200;2022-12-29T01:26:54;2.80;;;2.60;;
20336;SDS011;10326;53.660;10.200;2022-12-29T01:29:22;2.90;;;2.70;;
20336;SDS011;10326;53.660;10.200;2022-12-29T01:31:50;2.67;;;2.47;;
20336;SDS011;10326;53.660;10.200;2022-12-29T01:34:18;3.45;;;3.15;;
20336;SDS011;10326;53.660;10.200;2022-12-29T01:36:45;3.35;;;3.13;;
20336;SDS011;10326;53.660;10.200;2022-12-29T01:39:12;2.90;;;2.70;;
20336;SDS011;10326;53.660;10.200;2022-12-29T01:41:40;3.53;;;2.90;;
20336;SDS011;10326;53.660;10.200;2022-12-29T01:47:33;3.00;;;2.80;;
20336;SDS011;10326;53.660;10.200;2022-12-29T01:50:06;3.03;;;2.83;;
20336;SDS011;10326;53.660;10.200;2022-12-29T01:52:38;3.35;;;3.15;;
20336;SDS011;10326;53.660;10.200;2022-12-29T01:55:09;3.22;;;2.92;;
20336;SDS011;10326;53.660;10.200;2022-12-29T01:57:39;3.42;;;3.20;;
20336;SDS011;10326;53.660;10.200;2022-12-29T02:00:13;3.60;;;3.30;;
20336;SDS011;10326;53.660;10.200;2022-12-29T02:02:43;3.47;;;2.85;;
20336;SDS011;10326;53.660;10.200;2022-12-29T02:05:18;3.28;;;2.92;;
20336;SDS011;10326;53.660;10.200;2022-12-29T02:07:52;3.50;;;3.30;;
20336;SDS011;10326;53.660;10.200;2022-12-29T02:10:21;3.55;;;3.28;;
20336;SDS011;10326;53.660;10.200;2022-12-29T02:12:51;3.05;;;2.75;;
20336;SDS011;10326;53.660;10.200;2022-12-29T02:15:19;3.47;;;3.28;;
20336;SDS011;10326;53.660;10.200;2022-12-29T02:18:02;3.63;;;3.20;;
20336;SDS011;10326;53.660;10.200;2022-12-29T02:20:53;3.08;;;2.88;;
20336;SDS011;10326;53.660;10.200;2022-12-29T02:24:05;3.13;;;2.92;;
20336;SDS011;10326;53.660;10.200;2022-12-29T02:27:09;3.33;;;3.03;;
20336;SDS011;10326;53.660;10.200;2022-12-29T02:30:03;4.10;;;3.70;;
20336;SDS011;10326;53.660;10.200;2022-12-29T02:32:38;3.58;;;3.28;;
20336;SDS011;10326;53.660;10.200;2022-12-29T02:35:19;3.92;;;3.63;;
20336;SDS011;10326;53.660;10.200;2022-12-29T02:37:58;3.67;;;3.35;;
20336;SDS011;10326;53.660;10.200;2022-12-29T02:40:38;3.75;;;3.45;;
20336;SDS011;10326;53.660;10.200;2022-12-29T02:43:13;3.85;;;3.55;;
20336;SDS011;10326;53.660;10.200;2022-12-29T02:45:51;3.72;;;3.40;;
20336;SDS011;10326;53.660;10.200;2022-12-29T02:48:25;3.70;;;3.30;;
20336;SDS011;10326;53.660;10.200;2022-12-29T02:50:59;3.70;;;3.40;;
20336;SDS011;10326;53.660;10.200;2022-12-29T02:53:29;3.13;;;2.92;;
20336;SDS011;10326;53.660;10.200;2022-12-29T02:56:18;3.67;;;2.97;;
20336;SDS011;10326;53.660;10.200;2022-12-29T02:58:45;3.00;;;2.70;;
20336;SDS011;10326;53.660;10.200;2022-12-29T03:01:16;3.30;;;3.10;;
20336;SDS011;10326;53.660;10.200;2022-12-29T03:04:00;3.42;;;3.13;;
20336;SDS011;10326;53.660;10.200;2022-12-29T03:06:47;2.80;;;2.60;;
20336;SDS011;10326;53.660;10.200;2022-12-29T03:09:26;3.30;;;3.00;;
20336;SDS011;10326;53.660;10.200;2022-12-29T03:12:04;3.17;;;2.97;;
20336;SDS011;10326;53.660;10.200;2022-12-29T03:14:47;2.60;;;2.50;;
20336;SDS011;10326;53.660;10.200;2022-12-29T03:17:41;2.72;;;2.53;;
20336;SDS011;10326;53.660;10.200;2022-12-29T03:20:19;3.40;;;2.55;;
20336;SDS011;10326;53.660;10.200;2022-12-29T03:22:54;3.50;;;3.13;;
20336;SDS011;10326;53.660;10.200;2022-12-29T03:25:28;2.80;;;2.60;;
20336;SDS011;10326;53.660;10.200;2022-12-29T03:28:01;2.90;;;2.70;;
20336;SDS011;10326;53.660;10.200;2022-12-29T03:30:37;3.08;;;2.88;;
20336;SDS011;10326;53.660;10.200;2022-12-29T03:33:07;2.88;;;2.67;;
20336;SDS011;10326;53.660;10.200;2022-12-29T03:35:39;2.88;;;2.67;;
20336;SDS011;10326;53.660;10.200;2022-12-29T03:38:11;2.83;;;2.63;;
20336;SDS011;10326;53.660;10.200;2022-12-29T03:40:44;2.67;;;2.47;;
20336;SDS011;10326;53.660;10.200;2022-12-29T03:43:14;2.30;;;2.20;;
20336;SDS011;10326;53.660;10.200;2022-12-29T03:45:43;2.67;;;2.47;;
20336;SDS011;10326;53.660;10.200;2022-12-29T03:48:11;3.00;;;2.80;;
20336;SDS011;10326;53.660;10.200;2022-12-29T03:50:41;2.60;;;2.40;;
20336;SDS011;10326;53.660;10.200;2022-12-29T03:53:08;2.50;;;2.30;;
20336;SDS011;10326;53.660;10.200;2022-12-29T03:55:37;2.35;;;2.25;;
20336;SDS011;10326;53.660;10.200;2022-12-29T03:58:05;2.53;;;2.33;;
20336;SDS011;10326;53.660;10.200;2022-12-29T04:00:47;2.30;;;2.20;;
20336;SDS011;10326;53.660;10.200;2022-12-29T04:03:14;2.80;;;2.10;;
20336;SDS011;10326;53.660;10.200;2022-12-29T04:05:44;2.35;;;2.15;;
20336;SDS011;10326;53.660;10.200;2022-12-29T04:08:12;2.33;;;2.13;;
20336;SDS011;10326;53.660;10.200;2022-12-29T04:10:39;2.45;;;2.30;;
20336;SDS011;10326;53.660;10.200;2022-12-29T04:13:07;2.60;;;2.40;;
20336;SDS011;10326;53.660;10.200;2022-12-29T04:15:34;2.47;;;2.08;;
20336;SDS011;10326;53.660;10.200;2022-12-29T04:18:02;2.53;;;2.33;;
20336;SDS011;10326;53.660;10.200;2022-12-29T04:20:29;2.20;;;2.10;;
20336;SDS011;10326;53.660;10.200;2022-12-29T04:23:16;2.10;;;1.90;;
20336;SDS011;10326;53.660;10.200;2022-12-29T04:25:44;2.33;;;2.13;;
20336;SDS011;10326;53.660;10.200;2022-12-29T04:28:13;2.30;;;2.10;;
20336;SDS011;10326;53.660;10.200;2022-12-29T04:30:49;2.10;;;2.00;;
20336;SDS011;10326;53.660;10.200;2022-12-29T04:33:22;1.90;;;1.80;;
20336;SDS011;10326;53.660;10.200;2022-12-29T04:35:50;2.25;;;2.15;;
20336;SDS011;10326;53.660;10.200;2022-12-29T04:38:21;2.25;;;2.10;;
20336;SDS011;10326;53.660;10.200;2022-12-29T04:40:50;2.00;;;1.90;;
20336;SDS011;10326;53.660;10.200;2022-12-29T04:43:20;2.25;;;1.98;;
20336;SDS011;10326;53.660;10.200;2022-12-29T04:46:17;2.10;;;1.80;;
20336;SDS011;10326;53.660;10.200;2022-12-29T04:48:56;2.03;;;1.92;;
20336;SDS011;10326;53.660;10.200;2022-12-29T04:51:46;1.83;;;1.70;;
20336;SDS011;10326;53.660;10.200;2022-12-29T04:54:16;2.20;;;2.10;;
20336;SDS011;10326;53.660;10.200;2022-12-29T04:56:48;1.92;;;1.77;;
20336;SDS011;10326;53.660;10.200;2022-12-29T04:59:16;2.03;;;1.75;;
20336;SDS011;10326;53.660;10.200;2022-12-29T05:01:47;2.03;;;1.90;;
20336;SDS011;10326;53.660;10.200;2022-12-29T05:04:14;1.85;;;1.75;;
20336;SDS011;10326;53.660;10.200;2022-12-29T05:06:42;2.00;;;1.90;;
20336;SDS011;10326;53.660;10.200;2022-12-29T05:09:09;2.33;;;1.80;;
20336;SDS011;10326;53.660;10.200;2022-12-29T05:11:38;1.90;;;1.80;;
20336;SDS011;10326;53.660;10.200;2022-12-29T05:14:07;1.92;;;1.83;;
20336;SDS011;10326;53.660;10.200;2022-12-29T05:16:35;1.90;;;1.75;;
20336;SDS011;10326;53.660;10.200;2022-12-29T05:19:03;2.38;;;1.63;;
20336;SDS011;10326;53.660;10.200;2022-12-29T05:21:31;1.73;;;1.63;;
20336;SDS011;10326;53.660;10.200;2022-12-29T05:23:58;1.60;;;1.50;;
20336;SDS011;10326;53.660;10.200;2022-12-29T05:26:26;1.63;;;1.52;;
20336;SDS011;10326;53.660;10.200;2022-12-29T05:29:14;1.60;;;1.50;;
20336;SDS011;10326;53.660;10.200;2022-12-29T05:31:41;1.38;;;1.27;;
20336;SDS011;10326;53.660;10.200;2022-12-29T05:34:08;1.50;;;1.40;;
20336;SDS011;10326;53.660;10.200;2022-12-29T05:36:38;2.10;;;1.60;;
20336;SDS011;10326;53.660;10.200;2022-12-29T05:39:08;1.52;;;1.42;;
20336;SDS011;10326;53.660;10.200;2022-12-29T05:41:36;1.70;;;1.60;;
20336;SDS011;10326;53.660;10.200;2022-12-29T05:44:24;1.90;;;1.80;;
20336;SDS011;10326;53.660;10.200;2022-12-29T05:47:12;1.63;;;1.48;;
20336;SDS011;10326;53.660;10.200;2022-12-29T05:49:48;1.98;;;1.70;;
20336;SDS011;10326;53.660;10.200;2022-12-29T05:52:20;3.55;;;1.58;;
20336;SDS011;10326;53.660;10.200;2022-12-29T05:54:48;1.70;;;1.60;;
20336;SDS011;10326;53.660;10.200;2022-12-29T05:57:18;1.88;;;1.63;;
20336;SDS011;10326;53.660;10.200;2022-12-29T05:59:54;1.70;;;1.60;;
20336;SDS011;10326;53.660;10.200;2022-12-29T06:02:21;1.77;;;1.67;;
20336;SDS011;10326;53.660;10.200;2022-12-29T06:04:48;1.60;;;1.50;;
20336;SDS011;10326;53.660;10.200;2022-12-29T06:07:16;1.70;;;1.60;;
20336;SDS011;10326;53.660;10.200;2022-12-29T06:09:45;2.85;;;1.60;;
20336;SDS011;10326;53.660;10.200;2022-12-29T06:12:13;1.63;;;1.52;;
20336;SDS011;10326;53.660;10.200;2022-12-29T06:14:43;1.60;;;1.50;;
20336;SDS011;10326;53.660;10.200;2022-12-29T06:17:11;1.60;;;1.50;;
20336;SDS011;10326;53.660;10.200;2022-12-29T06:19:39;1.77;;;1.67;;
20336;SDS011;10326;53.660;10.200;2022-12-29T06:22:06;1.42;;;1.30;;
20336;SDS011;10326;53.660;10.200;2022-12-29T06:24:34;1.75;;;1.50;;
20336;SDS011;10326;53.660;10.200;2022-12-29T06:27:02;1.67;;;1.58;;
20336;SDS011;10326;53.660;10.200;2022-12-29T06:29:30;2.50;;;1.70;;
20336;SDS011;10326;53.660;10.200;2022-12-29T06:31:57;1.60;;;1.50;;
20336;SDS011;10326;53.660;10.200;2022-12-29T06:34:27;1.48;;;1.38;;
20336;SDS011;10326;53.660;10.200;2022-12-29T06:36:54;2.03;;;1.75;;
20336;SDS011;10326;53.660;10.200;2022-12-29T06:39:22;1.48;;;1.30;;
20336;SDS011;10326;53.660;10.200;2022-12-29T06:42:00;1.52;;;1.42;;
20336;SDS011;10326;53.660;10.200;2022-12-29T06:44:54;1.80;;;1.70;;
20336;SDS011;10326;53.660;10.200;2022-12-29T06:47:24;1.63;;;1.52;;
20336;SDS011;10326;53.660;10.200;2022-12-29T06:49:52;1.50;;;1.40;;
20336;SDS011;10326;53.660;10.200;2022-12-29T06:52:19;1.55;;;1.02;;
20336;SDS011;10326;53.660;10.200;2022-12-29T06:54:49;2.17;;;1.50;;
20336;SDS011;10326;53.660;10.200;2022-12-29T06:57:16;2.60;;;1.50;;
20336;SDS011;10326;53.660;10.200;2022-12-29T06:59:43;1.60;;;1.50;;
20336;SDS011;10326;53.660;10.200;2022-12-29T07:02:10;1.35;;;1.25;;
20336;SDS011;10326;53.660;10.200;2022-12-29T07:04:39;1.25;;;1.15;;
20336;SDS011;10326;53.660;10.200;2022-12-29T07:07:07;1.55;;;1.45;;
20336;SDS011;10326;53.660;10.200;2022-12-29T07:09:35;1.42;;;1.33;;
20336;SDS011;10326;53.660;10.200;2022-12-29T07:12:02;1.30;;;1.20;;
20336;SDS011;10326;53.660;10.200;2022-12-29T07:14:30;1.20;;;1.10;;
20336;SDS011;10326;53.660;10.200;2022-12-29T07:16:57;1.48;;;1.38;;
20336;SDS011;10326;53.660;10.200;2022-12-29T07:19:24;1.42;;;1.30;;
20336;SDS011;10326;53.660;10.200;2022-12-29T07:21:51;1.10;;;1.10;;
20336;SDS011;10326;53.660;10.200;2022-12-29T07:24:21;1.00;;;1.00;;
20336;SDS011;10326;53.660;10.200;2022-12-29T07:26:50;1.27;;;1.23;;
20336;SDS011;10326;53.660;10.200;2022-12-29T07:29:17;1.55;;;1.30;;
20336;SDS011;10326;53.660;10.200;2022-12-29T07:31:45;1.50;;;1.40;;
20336;SDS011;10326;53.660;10.200;2022-12-29T07:34:12;2.15;;;1.77;;
20336;SDS011;10326;53.660;10.200;2022-12-29T07:36:39;1.70;;;1.60;;
20336;SDS011;10326;53.660;10.200;2022-12-29T07:39:06;1.58;;;1.48;;
20336;SDS011;10326;53.660;10.200;2022-12-29T07:41:35;1.70;;;1.60;;
20336;SDS011;10326;53.660;10.200;2022-12-29T07:44:02;1.70;;;1.60;;
20336;SDS011;10326;53.660;10.200;2022-12-29T07:46:48;1.60;;;1.50;;
20336;SDS011;10326;53.660;10.200;2022-12-29T07:49:15;1.42;;;1.33;;
20336;SDS011;10326;53.660;10.200;2022-12-29T07:51:43;1.50;;;1.40;;
20336;SDS011;10326;53.660;10.200;2022-12-29T07:54:10;1.75;;;1.35;;
20336;SDS011;10326;53.660;10.200;2022-12-29T07:56:39;2.00;;;1.80;;
20336;SDS011;10326;53.660;10.200;2022-12-29T07:59:06;1.60;;;1.50;;
20336;SDS011;10326;53.660;10.200;2022-12-29T08:01:33;1.60;;;1.50;;
20336;SDS011;10326;53.660;10.200;2022-12-29T08:04:01;1.50;;;1.40;;
20336;SDS011;10326;53.660;10.200;2022-12-29T08:06:28;3.45;;;1.70;;
20336;SDS011;10326;53.660;10.200;2022-12-29T08:08:55;2.15;;;1.52;;
20336;SDS011;10326;53.660;10.200;2022-12-29T08:11:23;1.50;;;1.40;;
20336;SDS011;10326;53.660;10.200;2022-12-29T08:13:52;1.73;;;1.40;;
20336;SDS011;10326;53.660;10.200;2022-12-29T08:16:19;1.90;;;1.80;;
20336;SDS011;10326;53.660;10.200;2022-12-29T08:18:46;2.05;;;1.67;;
20336;SDS011;10326;53.660;10.200;2022-12-29T08:21:13;1.75;;;1.65;;
20336;SDS011;10326;53.660;10.200;2022-12-29T08:23:40;1.73;;;1.63;;
20336;SDS011;10326;53.660;10.200;2022-12-29T08:26:07;1.60;;;1.50;;
20336;SDS011;10326;53.660;10.200;2022-12-29T08:28:36;1.88;;;1.75;;
20336;SDS011;10326;53.660;10.200;2022-12-29T08:31:04;1.92;;;1.77;;
20336;SDS011;10326;53.660;10.200;2022-12-29T08:33:31;1.50;;;1.40;;
20336;SDS011;10326;53.660;10.200;2022-12-29T08:35:59;1.70;;;1.60;;
20336;SDS011;10326;53.660;10.200;2022-12-29T08:38:26;1.75;;;1.30;;
20336;SDS011;10326;53.660;10.200;2022-12-29T08:40:55;1.50;;;1.30;;
20336;SDS011;10326;53.660;10.200;2022-12-29T08:43:22;1.30;;;1.20;;
20336;SDS011;10326;53.660;10.200;2022-12-29T08:45:50;1.75;;;1.50;;
20336;SDS011;10326;53.660;10.200;2022-12-29T08:48:19;1.65;;;1.50;;
20336;SDS011;10326;53.660;10.200;2022-12-29T08:50:47;1.63;;;1.52;;
20336;SDS011;10326;53.660;10.200;2022-12-29T08:53:15;1.58;;;1.48;;
20336;SDS011;10326;53.660;10.200;2022-12-29T08:55:44;1.40;;;1.30;;
20336;SDS011;10326;53.660;10.200;2022-12-29T08:58:12;1.40;;;1.30;;
20336;SDS011;10326;53.660;10.200;2022-12-29T09:00:42;1.45;;;1.35;;
20336;SDS011;10326;53.660;10.200;2022-12-29T09:03:10;2.17;;;1.63;;
20336;SDS011;10326;53.660;10.200;2022-12-29T09:05:38;1.98;;;1.40;;
20336;SDS011;10326;53.660;10.200;2022-12-29T09:08:06;1.50;;;1.40;;
20336;SDS011;10326;53.660;10.200;2022-12-29T09:10:33;1.55;;;1.45;;
20336;SDS011;10326;53.660;10.200;2022-12-29T09:13:00;2.30;;;1.50;;
20336;SDS011;10326;53.660;10.200;2022-12-29T09:15:27;1.58;;;1.20;;
20336;SDS011;10326;53.660;10.200;2022-12-29T09:17:54;1.98;;;1.48;;
20336;SDS011;10326;53.660;10.200;2022-12-29T09:20:21;1.52;;;1.40;;
20336;SDS011;10326;53.660;10.200;2022-12-29T09:22:50;1.20;;;1.10;;
20336;SDS011;10326;53.660;10.200;2022-12-29T09:25:17;2.05;;;1.10;;
20336;SDS011;10326;53.660;10.200;2022-12-29T09:27:44;1.60;;;1.10;;
20336;SDS011;10326;53.660;10.200;2022-12-29T09:30:13;2.65;;;1.30;;
20336;SDS011;10326;53.660;10.200;2022-12-29T09:32:40;1.83;;;1.30;;
20336;SDS011;10326;53.660;10.200;2022-12-29T09:35:08;1.35;;;1.20;;
20336;SDS011;10326;53.660;10.200;2022-12-29T09:37:35;2.65;;;1.10;;
20336;SDS011;10326;53.660;10.200;2022-12-29T09:40:04;1.95;;;1.10;;
20336;SDS011;10326;53.660;10.200;2022-12-29T09:42:35;3.10;;;1.40;;
20336;SDS011;10326;53.660;10.200;2022-12-29T09:45:10;2.83;;;1.40;;
20336;SDS011;10326;53.660;10.200;2022-12-29T09:47:41;2.63;;;1.23;;
20336;SDS011;10326;53.660;10.200;2022-12-29T09:50:12;2.38;;;1.33;;
20336;SDS011;10326;53.660;10.200;2022-12-29T09:52:48;2.53;;;1.30;;
20336;SDS011;10326;53.660;10.200;2022-12-29T09:55:22;3.20;;;1.45;;
20336;SDS011;10326;53.660;10.200;2022-12-29T09:58:03;3.60;;;1.33;;
20336;SDS011;10326;53.660;10.200;2022-12-29T10:00:37;3.92;;;1.75;;
20336;SDS011;10326;53.660;10.200;2022-12-29T10:03:20;3.20;;;1.30;;
20336;SDS011;10326;53.660;10.200;2022-12-29T10:05:52;4.22;;;1.35;;
20336;SDS011;10326;53.660;10.200;2022-12-29T10:08:33;3.53;;;1.38;;
20336;SDS011;10326;53.660;10.200;2022-12-29T10:11:10;2.50;;;1.23;;
20336;SDS011;10326;53.660;10.200;2022-12-29T10:13:52;4.97;;;1.30;;
20336;SDS011;10326;53.660;10.200;2022-12-29T10:16:40;2.60;;;1.20;;
20336;SDS011;10326;53.660;10.200;2022-12-29T10:22:15;5.40;;;1.73;;
20336;SDS011;10326;53.660;10.200;2022-12-29T10:24:54;3.13;;;1.40;;
20336;SDS011;10326;53.660;10.200;2022-12-29T10:27:23;3.10;;;1.50;;
20336;SDS011;10326;53.660;10.200;2022-12-29T10:29:52;3.67;;;1.58;;
20336;SDS011;10326;53.660;10.200;2022-12-29T10:32:25;1.88;;;1.17;;
20336;SDS011;10326;53.660;10.200;2022-12-29T10:34:58;3.60;;;1.60;;
20336;SDS011;10326;53.660;10.200;2022-12-29T10:37:32;7.20;;;1.67;;
20336;SDS011;10326;53.660;10.200;2022-12-29T10:40:12;3.08;;;1.40;;
20336;SDS011;10326;53.660;10.200;2022-12-29T10:42:49;2.67;;;1.77;;
20336;SDS011;10326;53.660;10.200;2022-12-29T10:45:21;3.97;;;1.52;;
20336;SDS011;10326;53.660;10.200;2022-12-29T10:47:56;3.28;;;1.52;;
20336;SDS011;10326;53.660;10.200;2022-12-29T10:50:27;1.77;;;1.33;;
20336;SDS011;10326;53.660;10.200;2022-12-29T10:52:55;2.85;;;1.20;;
20336;SDS011;10326;53.660;10.200;2022-12-29T10:55:26;5.43;;;1.50;;
20336;SDS011;10326;53.660;10.200;2022-12-29T10:57:59;4.10;;;1.30;;
20336;SDS011;10326;53.660;10.200;2022-12-29T11:00:30;5.18;;;1.40;;
20336;SDS011;10326;53.660;10.200;2022-12-29T11:03:12;4.13;;;1.20;;
20336;SDS011;10326;53.660;10.200;2022-12-29T11:06:03;4.90;;;1.70;;
20336;SDS011;10326;53.660;10.200;2022-12-29T11:08:36;4.38;;;1.58;;
20336;SDS011;10326;53.660;10.200;2022-12-29T11:11:21;4.65;;;1.60;;
20336;SDS011;10326;53.660;10.200;2022-12-29T11:13:57;4.20;;;1.48;;
20336;SDS011;10326;53.660;10.200;2022-12-29T11:16:30;5.15;;;1.73;;
20336;SDS011;10326;53.660;10.200;2022-12-29T11:19:01;5.28;;;1.85;;
20336;SDS011;10326;53.660;10.200;2022-12-29T11:21:32;3.08;;;1.30;;
20336;SDS011;10326;53.660;10.200;2022-12-29T11:24:05;3.90;;;1.55;;
20336;SDS011;10326;53.660;10.200;2022-12-29T11:26:48;4.38;;;2.00;;
20336;SDS011;10326;53.660;10.200;2022-12-29T11:29:23;2.72;;;1.70;;
20336;SDS011;10326;53.660;10.200;2022-12-29T11:31:53;3.30;;;1.67;;
20336;SDS011;10326;53.660;10.200;2022-12-29T11:34:24;5.55;;;2.17;;
20336;SDS011;10326;53.660;10.200;2022-12-29T11:36:58;3.63;;;1.58;;
20336;SDS011;10326;53.660;10.200;2022-12-29T11:39:36;4.30;;;1.63;;
20336;SDS011;10326;53.660;10.200;2022-12-29T11:42:12;3.42;;;1.25;;
20336;SDS011;10326;53.660;10.200;2022-12-29T11:44:45;4.65;;;1.33;;
20336;SDS011;10326;53.660;10.200;2022-12-29T11:47:19;4.10;;;1.55;;
20336;SDS011;10326;53.660;10.200;2022-12-29T11:49:53;2.30;;;1.30;;
20336;SDS011;10326;53.660;10.200;2022-12-29T11:52:24;4.82;;;1.45;;
20336;SDS011;10326;53.660;10.200;2022-12-29T11:54:54;3.85;;;1.20;;
20336;SDS011;10326;53.660;10.200;2022-12-29T11:57:23;4.30;;;1.45;;
20336;SDS011;10326;53.660;10.200;2022-12-29T11:59:52;5.82;;;1.40;;
20336;SDS011;10326;53.660;10.200;2022-12-29T12:02:26;2.97;;;1.38;;
20336;SDS011;10326;53.660;10.200;2022-12-29T12:05:21;3.13;;;1.13;;
20336;SDS011;10326;53.660;10.200;2022-12-29T12:07:54;2.25;;;1.20;;
20336;SDS011;10326;53.660;10.200;2022-12-29T12:10:28;2.83;;;1.20;;
20336;SDS011;10326;53.660;10.200;2022-12-29T12:13:02;2.45;;;1.10;;
20336;SDS011;10326;53.660;10.200;2022-12-29T12:15:36;1.77;;;0.93;;
20336;SDS011;10326;53.660;10.200;2022-12-29T12:18:09;2.90;;;1.17;;
20336;SDS011;10326;53.660;10.200;2022-12-29T12:20:44;3.67;;;1.20;;
20336;SDS011;10326;53.660;10.200;2022-12-29T12:23:18;3.45;;;1.38;;
20336;SDS011;10326;53.660;10.200;2022-12-29T12:26:04;3.05;;;1.35;;
20336;SDS011;10326;53.660;10.200;2022-12-29T12:28:42;2.67;;;1.23;;
20336;SDS011;10326;53.660;10.200;2022-12-29T12:31:21;3.30;;;1.30;;
20336;SDS011;10326;53.660;10.200;2022-12-29T12:34:07;3.10;;;1.25;;
20336;SDS011;10326;53.660;10.200;2022-12-29T12:36:49;3.50;;;1.30;;
20336;SDS011;10326;53.660;10.200;2022-12-29T12:39:56;2.88;;;1.30;;
20336;SDS011;10326;53.660;10.200;2022-12-29T12:42:48;2.75;;;1.35;;
20336;SDS011;10326;53.660;10.200;2022-12-29T12:45:28;3.40;;;1.45;;
20336;SDS011;10326;53.660;10.200;2022-12-29T12:48:18;2.92;;;1.55;;
20336;SDS011;10326;53.660;10.200;2022-12-29T12:51:05;3.25;;;1.33;;
20336;SDS011;10326;53.660;10.200;2022-12-29T12:53:45;3.72;;;1.55;;
20336;SDS011;10326;53.660;10.200;2022-12-29T12:56:41;5.95;;;1.73;;
20336;SDS011;10326;53.660;10.200;2022-12-29T12:59:30;6.43;;;1.60;;
20336;SDS011;10326;53.660;10.200;2022-12-29T13:02:14;3.67;;;1.40;;
20336;SDS011;10326;53.660;10.200;2022-12-29T13:05:22;4.43;;;1.40;;
20336;SDS011;10326;53.660;10.200;2022-12-29T13:08:11;3.15;;;1.50;;
20336;SDS011;10326;53.660;10.200;2022-12-29T13:11:00;3.55;;;1.50;;
20336;SDS011;10326;53.660;10.200;2022-12-29T13:13:46;5.13;;;1.77;;
20336;SDS011;10326;53.660;10.200;2022-12-29T13:16:31;3.95;;;1.40;;
20336;SDS011;10326;53.660;10.200;2022-12-29T13:19:09;5.72;;;1.42;;
20336;SDS011;10326;53.660;10.200;2022-12-29T13:21:53;4.00;;;1.40;;
20336;SDS011;10326;53.660;10.200;2022-12-29T13:24:32;5.40;;;1.70;;
20336;SDS011;10326;53.660;10.200;2022-12-29T13:27:13;7.00;;;1.83;;
20336;SDS011;10326;53.660;10.200;2022-12-29T13:29:49;3.22;;;1.20;;
20336;SDS011;10326;53.660;10.200;2022-12-29T13:32:30;3.42;;;1.55;;
20336;SDS011;10326;53.660;10.200;2022-12-29T13:35:15;3.45;;;1.67;;
20336;SDS011;10326;53.660;10.200;2022-12-29T13:37:58;3.20;;;1.55;;
20336;SDS011;10326;53.660;10.200;2022-12-29T13:40:34;3.08;;;1.60;;
20336;SDS011;10326;53.660;10.200;2022-12-29T13:43:07;3.28;;;1.60;;
20336;SDS011;10326;53.660;10.200;2022-12-29T13:45:35;5.03;;;1.88;;
20336;SDS011;10326;53.660;10.200;2022-12-29T13:48:05;3.67;;;1.45;;
20336;SDS011;10326;53.660;10.200;2022-12-29T13:50:41;4.43;;;1.80;;
20336;SDS011;10326;53.660;10.200;2022-12-29T13:53:28;4.15;;;1.50;;
20336;SDS011;10326;53.660;10.200;2022-12-29T13:56:05;3.80;;;1.48;;
20336;SDS011;10326;53.660;10.200;2022-12-29T13:58:40;3.60;;;1.30;;
20336;SDS011;10326;53.660;10.200;2022-12-29T14:01:15;4.88;;;1.58;;
20336;SDS011;10326;53.660;10.200;2022-12-29T14:03:49;3.45;;;1.30;;
20336;SDS011;10326;53.660;10.200;2022-12-29T14:06:19;4.32;;;1.70;;
20336;SDS011;10326;53.660;10.200;2022-12-29T14:08:53;4.93;;;1.90;;
20336;SDS011;10326;53.660;10.200;2022-12-29T14:11:24;4.75;;;1.83;;
20336;SDS011;10326;53.660;10.200;2022-12-29T14:14:10;5.82;;;1.90;;
20336;SDS011;10326;53.660;10.200;2022-12-29T14:16:46;4.45;;;1.30;;
20336;SDS011;10326;53.660;10.200;2022-12-29T14:19:15;3.45;;;1.25;;
20336;SDS011;10326;53.660;10.200;2022-12-29T14:21:50;3.03;;;0.90;;
20336;SDS011;10326;53.660;10.200;2022-12-29T14:24:28;3.15;;;1.50;;
20336;SDS011;10326;53.660;10.200;2022-12-29T14:33:21;3.60;;;1.27;;
20336;SDS011;10326;53.660;10.200;2022-12-29T14:35:51;3.53;;;1.38;;
20336;SDS011;10326;53.660;10.200;2022-12-29T14:38:24;3.17;;;1.58;;
20336;SDS011;10326;53.660;10.200;2022-12-29T14:43:59;4.57;;;1.60;;
20336;SDS011;10326;53.660;10.200;2022-12-29T14:46:43;3.92;;;1.33;;
20336;SDS011;10326;53.660;10.200;2022-12-29T14:49:15;2.75;;;1.30;;
20336;SDS011;10326;53.660;10.200;2022-12-29T14:51:46;4.28;;;1.33;;
20336;SDS011;10326;53.660;10.200;2022-12-29T14:54:34;4.38;;;1.70;;
20336;SDS011;10326;53.660;10.200;2022-12-29T14:57:29;4.28;;;1.38;;
20336;SDS011;10326;53.660;10.200;2022-12-29T15:00:08;3.92;;;1.40;;
20336;SDS011;10326;53.660;10.200;2022-12-29T15:02:45;3.53;;;1.25;;
20336;SDS011;10326;53.660;10.200;2022-12-29T15:05:24;3.03;;;1.17;;
20336;SDS011;10326;53.660;10.200;2022-12-29T15:07:59;3.00;;;1.40;;
20336;SDS011;10326;53.660;10.200;2022-12-29T15:10:32;2.60;;;1.35;;
20336;SDS011;10326;53.660;10.200;2022-12-29T15:13:13;4.40;;;1.42;;
20336;SDS011;10326;53.660;10.200;2022-12-29T15:15:46;4.38;;;2.22;;
20336;SDS011;10326;53.660;10.200;2022-12-29T15:18:14;3.45;;;1.80;;
20336;SDS011;10326;53.660;10.200;2022-12-29T15:20:50;5.07;;;1.65;;
20336;SDS011;10326;53.660;10.200;2022-12-29T15:23:22;3.30;;;1.50;;
20336;SDS011;10326;53.660;10.200;2022-12-29T15:25:50;2.63;;;1.33;;
20336;SDS011;10326;53.660;10.200;2022-12-29T15:28:24;3.58;;;1.77;;